To NAV CANADA Home Page Login to a new session Search on AWWS site Feedback and Comments Disclaimer Vers la page française équivalente Tips FAQ What's new on the site To the Forecasts and Observations / NOTAM section To "File a Flight Plan" website Publications and other links Update of the User's profile FIC Telephone Numbers My Weather Data Folder Route Weather Data Regional Weather Data Local Weather Data To the Forecasts and Observations / NOTAM section
Request Generated 07/27/2016 at 21:06:35 UTC . Weather information available at that time is displayed.

METAR/TAF

FORT ST. JOHN/BC    

METAR CYXJ 272100Z VRB06KT 15SM FEW050TCU FEW160 SCT200 24/11 A3016
RMK TCU1AC1CI2 SLP216 DENSITY ALT 3500FT=
METAR CYXJ 272000Z 27005KT 15SM FEW050TCU FEW160 BKN200 22/12 A3016
RMK TCU1AC1CI3 SLP220 DENSITY ALT 3300FT=
METAR CYXJ 271900Z 32003KT 250V020 15SM FEW045TCU SCT160 SCT200 21/11
A3017 RMK TCU1AC3CC1 TCU TR SLP222 DENSITY ALT 3100FT=

TAF CYXJ 271838Z 2719/2807 32007KT P6SM FEW050 SCT160
RMK NXT FCST BY 280100Z=
Your time UTC time
Weather data provided by Environment Canada and NAV CANADA